Dandridge, Tennessee
Current Conditions -  °F | °C
As of 5:15 AM on Wednesday 26 Nov 2014 (Local Time) from KMOR Reporting Station
NA  
Wind Chill: 41°   Ceiling: NA
Heat Index: 45°   Visibility: 10mi
Dew Point: 30°   Wind: 6mph
Humidity: 57%   Direction: 310°NW
Pressure: 29.99"   Gusts: NA
Location:  36.02°N, 83.41°W
Report Text: KMOR 261015Z AUTO 31005KT 10SM 07/M01 A2999 RMK
Loading
Personal Weather Stations






























Interactive Weather Map New forecast layout! Learn more

10-Day Weather Forecast

Advertisements
Track Severe Weather on mobile